sensor_id;sensor_type;location;lat;lon;timestamp;pressure;altitude;pressure_sealevel;temperature;humidity
30081;BME280;16902;50.816;12.828;2023-02-23T00:04:51;97393.81;;;3.22;100.00
30081;BME280;16902;50.816;12.828;2023-02-23T00:09:53;97395.72;;;3.20;100.00
30081;BME280;16902;50.816;12.828;2023-02-23T00:14:55;97403.78;;;3.35;100.00
30081;BME280;16902;50.816;12.828;2023-02-23T00:19:57;97389.53;;;3.41;100.00
30081;BME280;16902;50.816;12.828;2023-02-23T00:24:59;97391.88;;;3.34;100.00
30081;BME280;16902;50.816;12.828;2023-02-23T00:30:02;97387.06;;;3.21;100.00
30081;BME280;16902;50.816;12.828;2023-02-23T00:35:05;97379.88;;;3.25;100.00
30081;BME280;16902;50.816;12.828;2023-02-23T00:40:17;97372.31;;;3.41;100.00
30081;BME280;16902;50.816;12.828;2023-02-23T00:45:22;97389.88;;;3.73;100.00
30081;BME280;16902;50.816;12.828;2023-02-23T00:50:26;97379.72;;;3.72;100.00
30081;BME280;16902;50.816;12.828;2023-02-23T00:55:27;97379.66;;;3.64;100.00
30081;BME280;16902;50.816;12.828;2023-02-23T01:00:29;97379.16;;;3.78;100.00
30081;BME280;16902;50.816;12.828;2023-02-23T01:05:35;97373.91;;;3.70;100.00
30081;BME280;16902;50.816;12.828;2023-02-23T01:10:41;97374.13;;;3.76;100.00
30081;BME280;16902;50.816;12.828;2023-02-23T01:15:46;97375.78;;;3.77;100.00
30081;BME280;16902;50.816;12.828;2023-02-23T01:20:48;97373.41;;;3.84;100.00
30081;BME280;16902;50.816;12.828;2023-02-23T01:25:51;97372.38;;;3.95;100.00
30081;BME280;16902;50.816;12.828;2023-02-23T01:30:53;97366.19;;;4.05;100.00
30081;BME280;16902;50.816;12.828;2023-02-23T01:35:58;97364.72;;;4.03;100.00
30081;BME280;16902;50.816;12.828;2023-02-23T01:41:00;97357.81;;;4.03;100.00
30081;BME280;16902;50.816;12.828;2023-02-23T01:46:03;97351.34;;;3.99;100.00
30081;BME280;16902;50.816;12.828;2023-02-23T01:51:11;97353.03;;;4.08;100.00
30081;BME280;16902;50.816;12.828;2023-02-23T01:56:17;97345.00;;;3.94;100.00
30081;BME280;16902;50.816;12.828;2023-02-23T02:01:22;97331.53;;;4.00;100.00
30081;BME280;16902;50.816;12.828;2023-02-23T02:06:25;97318.56;;;4.09;100.00
30081;BME280;16902;50.816;12.828;2023-02-23T02:11:30;97318.47;;;4.19;100.00
30081;BME280;16902;50.816;12.828;2023-02-23T02:22:14;97318.53;;;4.27;100.00
30081;BME280;16902;50.816;12.828;2023-02-23T02:39:02;97314.84;;;4.30;100.00
30081;BME280;16902;50.816;12.828;2023-02-23T02:59:19;97318.47;;;4.19;100.00
30081;BME280;16902;50.816;12.828;2023-02-23T03:04:39;97317.16;;;4.15;100.00
30081;BME280;16902;50.816;12.828;2023-02-23T03:10:28;97323.16;;;3.98;100.00
30081;BME280;16902;50.816;12.828;2023-02-23T03:22:27;97321.47;;;3.71;100.00
30081;BME280;16902;50.816;12.828;2023-02-23T03:33:09;97323.66;;;3.48;100.00
30081;BME280;16902;50.816;12.828;2023-02-23T03:38:59;97319.00;;;3.33;100.00
30081;BME280;16902;50.816;12.828;2023-02-23T03:44:31;97320.28;;;3.29;100.00
30081;BME280;16902;50.816;12.828;2023-02-23T03:49:53;97325.91;;;3.15;100.00
30081;BME280;16902;50.816;12.828;2023-02-23T03:55:17;97332.47;;;3.00;100.00
30081;BME280;16902;50.816;12.828;2023-02-23T04:00:45;97335.66;;;3.12;100.00
30081;BME280;16902;50.816;12.828;2023-02-23T04:06:10;97341.34;;;3.15;100.00
30081;BME280;16902;50.816;12.828;2023-02-23T04:17:06;97343.47;;;2.92;100.00
30081;BME280;16902;50.816;12.828;2023-02-23T04:22:09;97336.84;;;2.90;100.00
30081;BME280;16902;50.816;12.828;2023-02-23T04:27:11;97340.94;;;2.82;100.00
30081;BME280;16902;50.816;12.828;2023-02-23T04:32:16;97335.13;;;2.80;100.00
30081;BME280;16902;50.816;12.828;2023-02-23T04:37:18;97341.00;;;3.00;100.00
30081;BME280;16902;50.816;12.828;2023-02-23T04:42:20;97347.81;;;3.19;100.00
30081;BME280;16902;50.816;12.828;2023-02-23T04:47:21;97356.41;;;3.28;100.00
30081;BME280;16902;50.816;12.828;2023-02-23T04:52:23;97354.59;;;3.38;100.00
30081;BME280;16902;50.816;12.828;2023-02-23T04:57:25;97359.31;;;3.43;100.00
30081;BME280;16902;50.816;12.828;2023-02-23T05:02:27;97357.78;;;3.50;100.00
30081;BME280;16902;50.816;12.828;2023-02-23T05:07:29;97360.84;;;3.63;100.00
30081;BME280;16902;50.816;12.828;2023-02-23T05:12:31;97364.94;;;3.74;100.00
30081;BME280;16902;50.816;12.828;2023-02-23T05:17:32;97360.31;;;3.77;100.00
30081;BME280;16902;50.816;12.828;2023-02-23T05:22:34;97366.78;;;3.81;100.00
30081;BME280;16902;50.816;12.828;2023-02-23T05:27:36;97358.31;;;3.89;100.00
30081;BME280;16902;50.816;12.828;2023-02-23T05:32:38;97362.97;;;3.85;100.00
30081;BME280;16902;50.816;12.828;2023-02-23T05:37:39;97364.38;;;3.98;100.00
30081;BME280;16902;50.816;12.828;2023-02-23T05:42:41;97373.41;;;4.02;100.00
30081;BME280;16902;50.816;12.828;2023-02-23T05:47:43;97370.91;;;4.10;100.00
30081;BME280;16902;50.816;12.828;2023-02-23T05:52:45;97369.91;;;4.29;100.00
30081;BME280;16902;50.816;12.828;2023-02-23T05:57:47;97368.41;;;4.44;100.00
30081;BME280;16902;50.816;12.828;2023-02-23T06:02:48;97377.09;;;4.61;100.00
30081;BME280;16902;50.816;12.828;2023-02-23T06:07:54;97375.97;;;4.63;100.00
30081;BME280;16902;50.816;12.828;2023-02-23T06:12:57;97380.63;;;4.60;100.00
30081;BME280;16902;50.816;12.828;2023-02-23T06:17:59;97374.09;;;4.74;100.00
30081;BME280;16902;50.816;12.828;2023-02-23T06:23:00;97381.69;;;4.75;100.00
30081;BME280;16902;50.816;12.828;2023-02-23T06:28:02;97388.00;;;4.81;100.00
30081;BME280;16902;50.816;12.828;2023-02-23T06:33:04;97392.19;;;4.82;100.00
30081;BME280;16902;50.816;12.828;2023-02-23T06:38:06;97388.41;;;4.94;100.00
30081;BME280;16902;50.816;12.828;2023-02-23T06:43:09;97390.88;;;5.12;100.00
30081;BME280;16902;50.816;12.828;2023-02-23T06:48:11;97396.13;;;5.28;100.00
30081;BME280;16902;50.816;12.828;2023-02-23T06:53:13;97397.31;;;5.42;100.00
30081;BME280;16902;50.816;12.828;2023-02-23T06:58:14;97394.44;;;5.53;100.00
30081;BME280;16902;50.816;12.828;2023-02-23T07:03:16;97401.44;;;5.61;100.00
30081;BME280;16902;50.816;12.828;2023-02-23T07:08:19;97399.19;;;5.74;100.00
30081;BME280;16902;50.816;12.828;2023-02-23T07:13:21;97408.44;;;5.93;100.00
30081;BME280;16902;50.816;12.828;2023-02-23T07:18:22;97404.78;;;6.12;100.00
30081;BME280;16902;50.816;12.828;2023-02-23T07:23:24;97405.59;;;6.37;100.00
30081;BME280;16902;50.816;12.828;2023-02-23T07:28:26;97398.78;;;6.68;100.00
30081;BME280;16902;50.816;12.828;2023-02-23T07:33:29;97403.75;;;6.94;100.00
30081;BME280;16902;50.816;12.828;2023-02-23T07:38:32;97409.22;;;7.08;100.00
30081;BME280;16902;50.816;12.828;2023-02-23T07:43:35;97415.84;;;7.10;100.00
30081;BME280;16902;50.816;12.828;2023-02-23T07:48:36;97412.03;;;7.37;100.00
30081;BME280;16902;50.816;12.828;2023-02-23T07:53:45;97412.88;;;7.69;100.00
30081;BME280;16902;50.816;12.828;2023-02-23T07:58:47;97415.63;;;7.98;100.00
30081;BME280;16902;50.816;12.828;2023-02-23T08:03:49;97417.34;;;8.37;100.00
30081;BME280;16902;50.816;12.828;2023-02-23T08:08:50;97424.53;;;8.65;100.00
30081;BME280;16902;50.816;12.828;2023-02-23T08:13:52;97432.38;;;8.94;100.00
30081;BME280;16902;50.816;12.828;2023-02-23T08:18:58;97427.84;;;9.11;100.00
30081;BME280;16902;50.816;12.828;2023-02-23T08:24:00;97430.09;;;9.29;100.00
30081;BME280;16902;50.816;12.828;2023-02-23T08:29:01;97428.19;;;9.38;100.00
30081;BME280;16902;50.816;12.828;2023-02-23T08:34:03;97424.44;;;9.55;100.00
30081;BME280;16902;50.816;12.828;2023-02-23T08:39:05;97422.25;;;9.73;100.00
30081;BME280;16902;50.816;12.828;2023-02-23T08:44:07;97430.19;;;10.01;100.00
30081;BME280;16902;50.816;12.828;2023-02-23T08:49:09;97425.69;;;10.32;100.00
30081;BME280;16902;50.816;12.828;2023-02-23T08:54:12;97423.34;;;10.37;100.00
30081;BME280;16902;50.816;12.828;2023-02-23T08:59:15;97421.97;;;10.41;100.00
30081;BME280;16902;50.816;12.828;2023-02-23T09:04:17;97430.78;;;10.40;100.00
30081;BME280;16902;50.816;12.828;2023-02-23T09:09:18;97427.19;;;10.41;100.00
30081;BME280;16902;50.816;12.828;2023-02-23T09:14:20;97431.41;;;10.42;100.00
30081;BME280;16902;50.816;12.828;2023-02-23T09:19:22;97435.47;;;10.51;100.00
30081;BME280;16902;50.816;12.828;2023-02-23T09:24:24;97438.50;;;10.76;100.00
30081;BME280;16902;50.816;12.828;2023-02-23T09:29:25;97428.19;;;10.89;100.00
30081;BME280;16902;50.816;12.828;2023-02-23T09:34:27;97428.84;;;11.32;100.00
30081;BME280;16902;50.816;12.828;2023-02-23T09:39:31;97427.97;;;11.19;100.00
30081;BME280;16902;50.816;12.828;2023-02-23T09:45:11;97432.19;;;11.26;100.00
30081;BME280;16902;50.816;12.828;2023-02-23T09:50:16;97430.09;;;11.43;100.00
30081;BME280;16902;50.816;12.828;2023-02-23T09:55:19;97436.72;;;11.46;100.00
30081;BME280;16902;50.816;12.828;2023-02-23T10:00:22;97440.78;;;11.55;100.00
30081;BME280;16902;50.816;12.828;2023-02-23T10:05:32;97436.00;;;11.65;100.00
30081;BME280;16902;50.816;12.828;2023-02-23T10:16:30;97437.97;;;11.91;100.00
30081;BME280;16902;50.816;12.828;2023-02-23T10:21:39;97441.63;;;12.17;100.00
30081;BME280;16902;50.816;12.828;2023-02-23T10:26:46;97447.03;;;12.02;100.00
30081;BME280;16902;50.816;12.828;2023-02-23T10:31:57;97445.09;;;11.76;100.00
30081;BME280;16902;50.816;12.828;2023-02-23T10:37:02;97445.84;;;11.70;100.00
30081;BME280;16902;50.816;12.828;2023-02-23T10:42:06;97437.94;;;11.85;100.00
30081;BME280;16902;50.816;12.828;2023-02-23T10:47:16;97441.13;;;11.80;100.00
30081;BME280;16902;50.816;12.828;2023-02-23T10:52:40;97439.22;;;11.61;100.00
30081;BME280;16902;50.816;12.828;2023-02-23T10:57:43;97436.03;;;11.30;100.00
30081;BME280;16902;50.816;12.828;2023-02-23T11:02:46;97435.75;;;11.12;100.00
30081;BME280;16902;50.816;12.828;2023-02-23T11:07:48;97430.66;;;11.32;100.00
30081;BME280;16902;50.816;12.828;2023-02-23T11:12:50;97430.63;;;11.67;100.00
30081;BME280;16902;50.816;12.828;2023-02-23T11:18:02;97421.00;;;12.61;100.00
30081;BME280;16902;50.816;12.828;2023-02-23T11:23:09;97421.41;;;12.78;100.00
30081;BME280;16902;50.816;12.828;2023-02-23T11:28:29;97419.59;;;12.66;100.00
30081;BME280;16902;50.816;12.828;2023-02-23T11:33:32;97409.09;;;13.32;100.00
30081;BME280;16902;50.816;12.828;2023-02-23T11:38:36;97403.09;;;13.25;100.00
30081;BME280;16902;50.816;12.828;2023-02-23T11:43:46;97401.22;;;13.38;100.00
30081;BME280;16902;50.816;12.828;2023-02-23T11:48:55;97397.44;;;13.34;100.00
30081;BME280;16902;50.816;12.828;2023-02-23T11:54:01;97388.06;;;13.58;100.00
30081;BME280;16902;50.816;12.828;2023-02-23T11:59:14;97384.38;;;13.15;100.00
30081;BME280;16902;50.816;12.828;2023-02-23T12:04:36;97390.44;;;12.95;100.00
30081;BME280;16902;50.816;12.828;2023-02-23T12:09:40;97387.41;;;13.11;100.00
30081;BME280;16902;50.816;12.828;2023-02-23T12:15:14;97385.06;;;13.61;100.00
30081;BME280;16902;50.816;12.828;2023-02-23T12:20:20;97387.72;;;13.93;100.00
30081;BME280;16902;50.816;12.828;2023-02-23T12:25:39;97378.41;;;13.66;100.00
30081;BME280;16902;50.816;12.828;2023-02-23T12:31:05;97374.47;;;13.43;100.00
30081;BME280;16902;50.816;12.828;2023-02-23T12:36:35;97372.06;;;13.42;100.00
30081;BME280;16902;50.816;12.828;2023-02-23T12:46:59;97368.28;;;13.24;100.00
30081;BME280;16902;50.816;12.828;2023-02-23T12:52:17;97365.31;;;13.01;100.00
30081;BME280;16902;50.816;12.828;2023-02-23T13:02:51;97359.53;;;13.57;100.00
30081;BME280;16902;50.816;12.828;2023-02-23T13:24:32;97355.31;;;13.87;100.00
30081;BME280;16902;50.816;12.828;2023-02-23T13:29:37;97345.38;;;13.13;100.00
30081;BME280;16902;50.816;12.828;2023-02-23T13:34:44;97350.63;;;13.06;100.00
30081;BME280;16902;50.816;12.828;2023-02-23T13:50:58;97344.00;;;13.10;100.00
30081;BME280;16902;50.816;12.828;2023-02-23T13:56:06;97345.50;;;14.14;100.00
30081;BME280;16902;50.816;12.828;2023-02-23T14:01:15;97348.34;;;14.88;100.00
30081;BME280;16902;50.816;12.828;2023-02-23T14:06:19;97342.09;;;14.64;100.00
30081;BME280;16902;50.816;12.828;2023-02-23T14:22:17;97345.78;;;14.81;100.00
30081;BME280;16902;50.816;12.828;2023-02-23T14:27:26;97328.66;;;14.79;100.00
30081;BME280;16902;50.816;12.828;2023-02-23T14:32:44;97332.97;;;14.23;100.00
30081;BME280;16902;50.816;12.828;2023-02-23T14:37:55;97329.38;;;13.86;100.00
30081;BME280;16902;50.816;12.828;2023-02-23T14:43:00;97319.97;;;13.40;100.00
30081;BME280;16902;50.816;12.828;2023-02-23T14:48:10;97319.00;;;13.28;100.00
30081;BME280;16902;50.816;12.828;2023-02-23T14:53:20;97324.69;;;13.05;100.00
30081;BME280;16902;50.816;12.828;2023-02-23T14:58:25;97325.78;;;12.64;100.00
30081;BME280;16902;50.816;12.828;2023-02-23T15:03:27;97323.81;;;12.40;100.00
30081;BME280;16902;50.816;12.828;2023-02-23T15:08:30;97320.81;;;12.09;100.00
30081;BME280;16902;50.816;12.828;2023-02-23T15:13:35;97320.19;;;12.01;100.00
30081;BME280;16902;50.816;12.828;2023-02-23T15:18:38;97312.16;;;11.96;100.00
30081;BME280;16902;50.816;12.828;2023-02-23T15:23:48;97306.25;;;11.74;100.00
30081;BME280;16902;50.816;12.828;2023-02-23T15:28:51;97312.28;;;11.61;100.00
30081;BME280;16902;50.816;12.828;2023-02-23T15:33:52;97306.31;;;11.19;100.00
30081;BME280;16902;50.816;12.828;2023-02-23T15:38:59;97311.34;;;10.79;100.00
30081;BME280;16902;50.816;12.828;2023-02-23T15:44:06;97316.56;;;10.51;100.00
30081;BME280;16902;50.816;12.828;2023-02-23T15:49:12;97323.78;;;10.07;100.00
30081;BME280;16902;50.816;12.828;2023-02-23T15:54:46;97318.34;;;9.59;100.00
30081;BME280;16902;50.816;12.828;2023-02-23T15:59:49;97324.47;;;9.36;100.00
30081;BME280;16902;50.816;12.828;2023-02-23T16:04:55;97317.44;;;9.15;100.00
30081;BME280;16902;50.816;12.828;2023-02-23T16:10:18;97316.72;;;9.07;100.00
30081;BME280;16902;50.816;12.828;2023-02-23T16:15:32;97320.13;;;8.92;100.00
30081;BME280;16902;50.816;12.828;2023-02-23T16:20:40;97321.41;;;8.82;100.00
30081;BME280;16902;50.816;12.828;2023-02-23T16:25:43;97313.44;;;8.83;100.00
30081;BME280;16902;50.816;12.828;2023-02-23T16:30:57;97316.94;;;8.75;100.00
30081;BME280;16902;50.816;12.828;2023-02-23T16:41:20;97314.22;;;8.54;100.00
30081;BME280;16902;50.816;12.828;2023-02-23T16:46:24;97315.28;;;8.45;100.00
30081;BME280;16902;50.816;12.828;2023-02-23T16:51:28;97314.19;;;8.39;100.00
30081;BME280;16902;50.816;12.828;2023-02-23T16:56:29;97323.16;;;8.37;100.00
30081;BME280;16902;50.816;12.828;2023-02-23T17:01:31;97322.66;;;8.33;100.00
30081;BME280;16902;50.816;12.828;2023-02-23T17:06:33;97329.00;;;8.31;100.00
30081;BME280;16902;50.816;12.828;2023-02-23T17:11:35;97320.13;;;8.25;100.00
30081;BME280;16902;50.816;12.828;2023-02-23T17:16:36;97325.97;;;8.27;100.00
30081;BME280;16902;50.816;12.828;2023-02-23T17:21:38;97340.81;;;8.33;100.00
30081;BME280;16902;50.816;12.828;2023-02-23T17:26:40;97335.94;;;8.38;100.00
30081;BME280;16902;50.816;12.828;2023-02-23T17:31:42;97344.63;;;8.45;100.00
30081;BME280;16902;50.816;12.828;2023-02-23T17:36:44;97351.50;;;8.38;100.00
30081;BME280;16902;50.816;12.828;2023-02-23T17:41:46;97347.41;;;8.44;100.00
30081;BME280;16902;50.816;12.828;2023-02-23T17:46:48;97356.38;;;8.33;100.00
30081;BME280;16902;50.816;12.828;2023-02-23T17:51:49;97351.44;;;8.23;100.00
30081;BME280;16902;50.816;12.828;2023-02-23T17:56:51;97348.66;;;8.02;100.00
30081;BME280;16902;50.816;12.828;2023-02-23T18:01:55;97348.00;;;8.08;100.00
30081;BME280;16902;50.816;12.828;2023-02-23T18:06:56;97340.97;;;7.94;100.00
30081;BME280;16902;50.816;12.828;2023-02-23T18:11:59;97341.97;;;7.93;100.00
30081;BME280;16902;50.816;12.828;2023-02-23T18:17:01;97333.75;;;7.81;100.00
30081;BME280;16902;50.816;12.828;2023-02-23T18:22:03;97322.81;;;7.71;100.00
30081;BME280;16902;50.816;12.828;2023-02-23T18:27:04;97330.13;;;7.67;100.00
30081;BME280;16902;50.816;12.828;2023-02-23T18:32:06;97329.78;;;7.70;100.00
30081;BME280;16902;50.816;12.828;2023-02-23T18:37:08;97326.69;;;7.75;100.00
30081;BME280;16902;50.816;12.828;2023-02-23T18:42:10;97323.44;;;7.73;100.00
30081;BME280;16902;50.816;12.828;2023-02-23T18:47:12;97319.94;;;7.66;100.00
30081;BME280;16902;50.816;12.828;2023-02-23T18:52:14;97319.75;;;7.67;100.00
30081;BME280;16902;50.816;12.828;2023-02-23T18:57:15;97324.47;;;7.64;100.00
30081;BME280;16902;50.816;12.828;2023-02-23T19:02:17;97322.81;;;7.71;100.00
30081;BME280;16902;50.816;12.828;2023-02-23T19:07:19;97321.47;;;7.83;100.00
30081;BME280;16902;50.816;12.828;2023-02-23T19:12:20;97319.81;;;7.82;100.00
30081;BME280;16902;50.816;12.828;2023-02-23T19:17:27;97317.28;;;7.97;100.00
30081;BME280;16902;50.816;12.828;2023-02-23T19:22:29;97314.25;;;7.93;100.00
30081;BME280;16902;50.816;12.828;2023-02-23T19:27:31;97312.09;;;7.97;100.00
30081;BME280;16902;50.816;12.828;2023-02-23T19:32:35;97305.03;;;7.91;100.00
30081;BME280;16902;50.816;12.828;2023-02-23T19:37:48;97305.34;;;7.88;100.00
30081;BME280;16902;50.816;12.828;2023-02-23T19:42:50;97305.34;;;7.88;100.00
30081;BME280;16902;50.816;12.828;2023-02-23T19:47:54;97304.31;;;7.97;100.00
30081;BME280;16902;50.816;12.828;2023-02-23T19:52:56;97300.06;;;8.04;100.00
30081;BME280;16902;50.816;12.828;2023-02-23T19:57:57;97298.66;;;8.16;100.00
30081;BME280;16902;50.816;12.828;2023-02-23T20:02:59;97293.47;;;8.16;100.00
30081;BME280;16902;50.816;12.828;2023-02-23T20:08:09;97290.44;;;8.13;100.00
30081;BME280;16902;50.816;12.828;2023-02-23T20:13:11;97295.53;;;8.21;100.00
30081;BME280;16902;50.816;12.828;2023-02-23T20:18:13;97293.22;;;8.26;100.00
30081;BME280;16902;50.816;12.828;2023-02-23T20:23:14;97298.06;;;8.29;100.00
30081;BME280;16902;50.816;12.828;2023-02-23T20:28:16;97296.72;;;8.33;100.00
30081;BME280;16902;50.816;12.828;2023-02-23T20:33:18;97295.47;;;8.29;100.00
30081;BME280;16902;50.816;12.828;2023-02-23T20:38:20;97296.09;;;8.31;100.00
30081;BME280;16902;50.816;12.828;2023-02-23T20:43:21;97296.25;;;8.30;100.00
30081;BME280;16902;50.816;12.828;2023-02-23T20:48:23;97287.22;;;8.25;100.00
30081;BME280;16902;50.816;12.828;2023-02-23T20:53:25;97275.50;;;8.15;100.00
30081;BME280;16902;50.816;12.828;2023-02-23T20:58:26;97281.53;;;8.07;100.00
30081;BME280;16902;50.816;12.828;2023-02-23T21:03:29;97276.28;;;8.01;100.00
30081;BME280;16902;50.816;12.828;2023-02-23T21:08:31;97272.66;;;7.87;100.00
30081;BME280;16902;50.816;12.828;2023-02-23T21:13:33;97277.91;;;7.79;100.00
30081;BME280;16902;50.816;12.828;2023-02-23T21:18:35;97274.06;;;7.75;100.00
30081;BME280;16902;50.816;12.828;2023-02-23T21:23:38;97266.44;;;7.73;100.00
30081;BME280;16902;50.816;12.828;2023-02-23T21:28:42;97262.44;;;7.70;100.00
30081;BME280;16902;50.816;12.828;2023-02-23T21:33:44;97262.94;;;7.66;100.00
30081;BME280;16902;50.816;12.828;2023-02-23T21:38:45;97258.75;;;7.65;100.00
30081;BME280;16902;50.816;12.828;2023-02-23T21:43:47;97253.09;;;7.61;100.00
30081;BME280;16902;50.816;12.828;2023-02-23T21:48:53;97253.94;;;7.54;100.00
30081;BME280;16902;50.816;12.828;2023-02-23T21:53:55;97248.16;;;7.52;100.00
30081;BME280;16902;50.816;12.828;2023-02-23T21:59:00;97251.06;;;7.48;100.00
30081;BME280;16902;50.816;12.828;2023-02-23T22:04:03;97246.59;;;7.42;100.00
30081;BME280;16902;50.816;12.828;2023-02-23T22:09:06;97241.75;;;7.39;100.00
30081;BME280;16902;50.816;12.828;2023-02-23T22:14:11;97241.91;;;7.38;100.00
30081;BME280;16902;50.816;12.828;2023-02-23T22:19:17;97247.63;;;7.33;100.00
30081;BME280;16902;50.816;12.828;2023-02-23T22:24:20;97244.22;;;7.33;100.00
30081;BME280;16902;50.816;12.828;2023-02-23T22:29:24;97251.28;;;7.16;100.00
30081;BME280;16902;50.816;12.828;2023-02-23T22:34:26;97247.00;;;7.00;100.00
30081;BME280;16902;50.816;12.828;2023-02-23T22:39:28;97249.50;;;6.85;100.00
30081;BME280;16902;50.816;12.828;2023-02-23T22:44:36;97246.00;;;6.70;100.00
30081;BME280;16902;50.816;12.828;2023-02-23T22:49:38;97248.16;;;6.58;100.00
30081;BME280;16902;50.816;12.828;2023-02-23T22:54:40;97239.75;;;6.56;100.00
30081;BME280;16902;50.816;12.828;2023-02-23T22:59:44;97240.09;;;6.53;100.00
30081;BME280;16902;50.816;12.828;2023-02-23T23:04:55;97240.91;;;6.46;100.00
30081;BME280;16902;50.816;12.828;2023-02-23T23:09:57;97243.44;;;6.62;100.00
30081;BME280;16902;50.816;12.828;2023-02-23T23:14:58;97231.19;;;6.56;100.00
30081;BME280;16902;50.816;12.828;2023-02-23T23:20:01;97237.84;;;6.42;100.00
30081;BME280;16902;50.816;12.828;2023-02-23T23:25:12;97233.31;;;6.44;100.00
30081;BME280;16902;50.816;12.828;2023-02-23T23:30:23;97224.31;;;6.32;100.00
30081;BME280;16902;50.816;12.828;2023-02-23T23:35:32;97225.94;;;6.25;100.00
30081;BME280;16902;50.816;12.828;2023-02-23T23:40:34;97229.34;;;6.25;100.00
30081;BME280;16902;50.816;12.828;2023-02-23T23:45:38;97232.22;;;6.30;100.00
30081;BME280;16902;50.816;12.828;2023-02-23T23:51:05;97213.97;;;6.24;100.00
30081;BME280;16902;50.816;12.828;2023-02-23T23:56:08;97215.44;;;6.18;100.00
